sensor_id;sensor_type;location;lat;lon;timestamp;temperature;humidity
34135;DHT22;20410;55.578;12.968;2023-07-08T00:00:48;15.70;1.00
34135;DHT22;20410;55.578;12.968;2023-07-08T00:03:18;15.60;1.00
34135;DHT22;20410;55.578;12.968;2023-07-08T00:05:48;15.50;1.00
34135;DHT22;20410;55.578;12.968;2023-07-08T00:08:17;15.50;1.00
34135;DHT22;20410;55.578;12.968;2023-07-08T00:10:43;15.50;1.00
34135;DHT22;20410;55.578;12.968;2023-07-08T00:13:09;15.50;1.00
34135;DHT22;20410;55.578;12.968;2023-07-08T00:15:36;15.40;1.00
34135;DHT22;20410;55.578;12.968;2023-07-08T00:18:16;15.40;1.00
34135;DHT22;20410;55.578;12.968;2023-07-08T00:20:44;15.40;1.00
34135;DHT22;20410;55.578;12.968;2023-07-08T00:23:10;15.40;1.00
34135;DHT22;20410;55.578;12.968;2023-07-08T00:25:37;15.30;1.00
34135;DHT22;20410;55.578;12.968;2023-07-08T00:28:20;15.30;1.00
34135;DHT22;20410;55.578;12.968;2023-07-08T00:30:47;15.20;1.00
34135;DHT22;20410;55.578;12.968;2023-07-08T00:33:12;15.20;1.00
34135;DHT22;20410;55.578;12.968;2023-07-08T00:35:40;15.20;1.00
34135;DHT22;20410;55.578;12.968;2023-07-08T00:38:26;15.20;1.00
34135;DHT22;20410;55.578;12.968;2023-07-08T00:41:00;15.20;1.00
34135;DHT22;20410;55.578;12.968;2023-07-08T00:43:41;15.20;1.00
34135;DHT22;20410;55.578;12.968;2023-07-08T00:48:55;15.10;1.00
34135;DHT22;20410;55.578;12.968;2023-07-08T00:51:22;15.10;1.00
34135;DHT22;20410;55.578;12.968;2023-07-08T00:53:48;15.10;1.00
34135;DHT22;20410;55.578;12.968;2023-07-08T00:56:25;15.10;1.00
34135;DHT22;20410;55.578;12.968;2023-07-08T01:01:24;15.10;1.00
34135;DHT22;20410;55.578;12.968;2023-07-08T01:03:55;15.10;1.00
34135;DHT22;20410;55.578;12.968;2023-07-08T01:06:24;15.20;1.00
34135;DHT22;20410;55.578;12.968;2023-07-08T01:08:59;15.30;1.00
34135;DHT22;20410;55.578;12.968;2023-07-08T01:11:29;15.30;1.00
34135;DHT22;20410;55.578;12.968;2023-07-08T01:13:55;15.40;1.00
34135;DHT22;20410;55.578;12.968;2023-07-08T01:16:22;15.30;1.00
34135;DHT22;20410;55.578;12.968;2023-07-08T01:18:48;15.30;1.00
34135;DHT22;20410;55.578;12.968;2023-07-08T01:21:32;15.20;1.00
34135;DHT22;20410;55.578;12.968;2023-07-08T01:23:59;15.30;1.00
34135;DHT22;20410;55.578;12.968;2023-07-08T01:26:26;15.30;1.00
34135;DHT22;20410;55.578;12.968;2023-07-08T01:28:53;15.40;1.00
34135;DHT22;20410;55.578;12.968;2023-07-08T01:31:22;15.40;1.00
34135;DHT22;20410;55.578;12.968;2023-07-08T01:33:48;15.40;1.00
34135;DHT22;20410;55.578;12.968;2023-07-08T01:36:13;15.40;1.00
34135;DHT22;20410;55.578;12.968;2023-07-08T01:38:39;15.40;1.00
34135;DHT22;20410;55.578;12.968;2023-07-08T01:41:11;15.40;1.00
34135;DHT22;20410;55.578;12.968;2023-07-08T01:43:37;15.30;1.00
34135;DHT22;20410;55.578;12.968;2023-07-08T01:46:03;15.10;1.00
34135;DHT22;20410;55.578;12.968;2023-07-08T01:48:33;15.00;1.00
34135;DHT22;20410;55.578;12.968;2023-07-08T01:51:06;14.90;1.00
34135;DHT22;20410;55.578;12.968;2023-07-08T01:53:38;14.80;1.00
34135;DHT22;20410;55.578;12.968;2023-07-08T01:56:06;14.70;1.00
34135;DHT22;20410;55.578;12.968;2023-07-08T01:58:32;14.60;1.00
34135;DHT22;20410;55.578;12.968;2023-07-08T02:00:58;14.50;1.00
34135;DHT22;20410;55.578;12.968;2023-07-08T02:03:24;14.50;1.00
34135;DHT22;20410;55.578;12.968;2023-07-08T02:05:50;14.40;1.00
34135;DHT22;20410;55.578;12.968;2023-07-08T02:08:16;14.40;1.00
34135;DHT22;20410;55.578;12.968;2023-07-08T02:10:43;14.30;1.00
34135;DHT22;20410;55.578;12.968;2023-07-08T02:13:09;14.30;1.00
34135;DHT22;20410;55.578;12.968;2023-07-08T02:15:35;14.40;1.00
34135;DHT22;20410;55.578;12.968;2023-07-08T02:18:00;14.40;1.00
34135;DHT22;20410;55.578;12.968;2023-07-08T02:20:26;14.50;1.00
34135;DHT22;20410;55.578;12.968;2023-07-08T02:22:51;14.40;1.00
34135;DHT22;20410;55.578;12.968;2023-07-08T02:25:17;14.40;1.00
34135;DHT22;20410;55.578;12.968;2023-07-08T02:27:43;14.40;1.00
34135;DHT22;20410;55.578;12.968;2023-07-08T02:30:09;14.40;1.00
34135;DHT22;20410;55.578;12.968;2023-07-08T02:32:35;14.40;1.00
34135;DHT22;20410;55.578;12.968;2023-07-08T02:35:07;14.40;1.00
34135;DHT22;20410;55.578;12.968;2023-07-08T02:37:33;14.40;1.00
34135;DHT22;20410;55.578;12.968;2023-07-08T02:39:59;14.40;1.00
34135;DHT22;20410;55.578;12.968;2023-07-08T02:42:26;14.30;1.00
34135;DHT22;20410;55.578;12.968;2023-07-08T02:44:52;14.40;1.00
34135;DHT22;20410;55.578;12.968;2023-07-08T02:47:17;14.40;1.00
34135;DHT22;20410;55.578;12.968;2023-07-08T02:49:43;14.40;1.00
34135;DHT22;20410;55.578;12.968;2023-07-08T02:52:09;14.40;1.00
34135;DHT22;20410;55.578;12.968;2023-07-08T02:54:35;14.40;1.00
34135;DHT22;20410;55.578;12.968;2023-07-08T02:57:00;14.40;1.00
34135;DHT22;20410;55.578;12.968;2023-07-08T02:59:26;14.30;1.00
34135;DHT22;20410;55.578;12.968;2023-07-08T03:01:53;14.30;1.00
34135;DHT22;20410;55.578;12.968;2023-07-08T03:04:19;14.40;1.00
34135;DHT22;20410;55.578;12.968;2023-07-08T03:06:49;14.40;1.00
34135;DHT22;20410;55.578;12.968;2023-07-08T03:09:15;14.50;1.00
34135;DHT22;20410;55.578;12.968;2023-07-08T03:11:41;14.50;1.00
34135;DHT22;20410;55.578;12.968;2023-07-08T03:14:06;14.40;1.00
34135;DHT22;20410;55.578;12.968;2023-07-08T03:16:32;14.40;1.00
34135;DHT22;20410;55.578;12.968;2023-07-08T03:18:58;14.40;1.00
34135;DHT22;20410;55.578;12.968;2023-07-08T03:21:24;14.50;1.00
34135;DHT22;20410;55.578;12.968;2023-07-08T03:23:50;14.60;1.00
34135;DHT22;20410;55.578;12.968;2023-07-08T03:26:22;14.60;1.00
34135;DHT22;20410;55.578;12.968;2023-07-08T03:28:48;14.70;1.00
34135;DHT22;20410;55.578;12.968;2023-07-08T03:31:14;14.80;1.00
34135;DHT22;20410;55.578;12.968;2023-07-08T03:33:40;15.00;1.00
34135;DHT22;20410;55.578;12.968;2023-07-08T03:36:14;15.20;1.00
34135;DHT22;20410;55.578;12.968;2023-07-08T03:38:55;15.30;1.00
34135;DHT22;20410;55.578;12.968;2023-07-08T03:41:21;15.40;1.00
34135;DHT22;20410;55.578;12.968;2023-07-08T03:43:47;15.50;1.00
34135;DHT22;20410;55.578;12.968;2023-07-08T03:46:17;15.70;1.00
34135;DHT22;20410;55.578;12.968;2023-07-08T03:48:43;15.90;1.00
34135;DHT22;20410;55.578;12.968;2023-07-08T03:51:23;16.00;1.00
34135;DHT22;20410;55.578;12.968;2023-07-08T03:53:49;16.10;1.00
34135;DHT22;20410;55.578;12.968;2023-07-08T03:56:14;16.20;1.00
34135;DHT22;20410;55.578;12.968;2023-07-08T03:58:40;16.30;1.00
34135;DHT22;20410;55.578;12.968;2023-07-08T04:01:17;16.50;1.00
34135;DHT22;20410;55.578;12.968;2023-07-08T04:03:43;16.80;1.00
34135;DHT22;20410;55.578;12.968;2023-07-08T04:06:09;17.00;1.00
34135;DHT22;20410;55.578;12.968;2023-07-08T04:08:35;17.10;1.00
34135;DHT22;20410;55.578;12.968;2023-07-08T04:11:00;17.30;1.00
34135;DHT22;20410;55.578;12.968;2023-07-08T04:13:26;17.50;1.00
34135;DHT22;20410;55.578;12.968;2023-07-08T04:15:56;17.70;1.00
34135;DHT22;20410;55.578;12.968;2023-07-08T04:18:22;17.80;1.00
34135;DHT22;20410;55.578;12.968;2023-07-08T04:20:48;17.90;1.00
34135;DHT22;20410;55.578;12.968;2023-07-08T04:23:18;18.10;1.00
34135;DHT22;20410;55.578;12.968;2023-07-08T04:25:44;18.20;1.00
34135;DHT22;20410;55.578;12.968;2023-07-08T04:28:09;18.30;1.00
34135;DHT22;20410;55.578;12.968;2023-07-08T04:30:35;18.40;1.00
34135;DHT22;20410;55.578;12.968;2023-07-08T04:33:15;18.50;1.00
34135;DHT22;20410;55.578;12.968;2023-07-08T04:35:42;18.70;1.00
34135;DHT22;20410;55.578;12.968;2023-07-08T04:38:28;18.80;1.00
34135;DHT22;20410;55.578;12.968;2023-07-08T04:40:54;19.00;1.00
34135;DHT22;20410;55.578;12.968;2023-07-08T04:43:21;19.10;1.00
34135;DHT22;20410;55.578;12.968;2023-07-08T04:45:53;19.20;1.00
34135;DHT22;20410;55.578;12.968;2023-07-08T04:48:20;19.30;1.00
34135;DHT22;20410;55.578;12.968;2023-07-08T04:50:48;19.30;1.00
34135;DHT22;20410;55.578;12.968;2023-07-08T04:53:15;19.30;1.00
34135;DHT22;20410;55.578;12.968;2023-07-08T04:55:47;19.40;1.00
34135;DHT22;20410;55.578;12.968;2023-07-08T04:58:14;19.50;1.00
34135;DHT22;20410;55.578;12.968;2023-07-08T05:00:39;19.60;1.00
34135;DHT22;20410;55.578;12.968;2023-07-08T05:03:05;19.70;1.00
34135;DHT22;20410;55.578;12.968;2023-07-08T05:05:31;19.70;1.00
34135;DHT22;20410;55.578;12.968;2023-07-08T05:07:56;19.70;1.00
34135;DHT22;20410;55.578;12.968;2023-07-08T05:10:22;19.70;1.00
34135;DHT22;20410;55.578;12.968;2023-07-08T05:12:48;19.70;1.00
34135;DHT22;20410;55.578;12.968;2023-07-08T05:15:14;19.70;1.00
34135;DHT22;20410;55.578;12.968;2023-07-08T05:17:41;19.70;1.00
34135;DHT22;20410;55.578;12.968;2023-07-08T05:20:08;19.80;1.00
34135;DHT22;20410;55.578;12.968;2023-07-08T05:22:35;19.90;1.00
34135;DHT22;20410;55.578;12.968;2023-07-08T05:25:00;20.00;1.00
34135;DHT22;20410;55.578;12.968;2023-07-08T05:27:27;20.00;1.00
34135;DHT22;20410;55.578;12.968;2023-07-08T05:29:53;20.10;1.00
34135;DHT22;20410;55.578;12.968;2023-07-08T05:32:19;20.20;1.00
34135;DHT22;20410;55.578;12.968;2023-07-08T05:34:45;20.20;1.00
34135;DHT22;20410;55.578;12.968;2023-07-08T05:37:11;20.30;1.00
34135;DHT22;20410;55.578;12.968;2023-07-08T05:39:37;20.30;1.00
34135;DHT22;20410;55.578;12.968;2023-07-08T05:42:03;20.30;1.00
34135;DHT22;20410;55.578;12.968;2023-07-08T05:44:29;20.30;1.00
34135;DHT22;20410;55.578;12.968;2023-07-08T05:46:54;20.20;1.00
34135;DHT22;20410;55.578;12.968;2023-07-08T05:49:20;20.30;1.00
34135;DHT22;20410;55.578;12.968;2023-07-08T05:51:45;20.40;1.00
34135;DHT22;20410;55.578;12.968;2023-07-08T05:54:11;20.50;1.00
34135;DHT22;20410;55.578;12.968;2023-07-08T05:56:37;20.60;1.00
34135;DHT22;20410;55.578;12.968;2023-07-08T05:59:03;20.60;1.00
34135;DHT22;20410;55.578;12.968;2023-07-08T06:01:29;20.70;1.00
34135;DHT22;20410;55.578;12.968;2023-07-08T06:03:55;20.70;1.00
34135;DHT22;20410;55.578;12.968;2023-07-08T06:06:25;20.70;1.00
34135;DHT22;20410;55.578;12.968;2023-07-08T06:08:51;20.80;1.00
34135;DHT22;20410;55.578;12.968;2023-07-08T06:11:17;20.90;1.00
34135;DHT22;20410;55.578;12.968;2023-07-08T06:13:43;20.90;99.90
34135;DHT22;20410;55.578;12.968;2023-07-08T06:16:09;20.90;99.90
34135;DHT22;20410;55.578;12.968;2023-07-08T06:18:34;20.90;99.90
34135;DHT22;20410;55.578;12.968;2023-07-08T06:21:00;20.90;99.90
34135;DHT22;20410;55.578;12.968;2023-07-08T06:23:27;20.90;99.90
34135;DHT22;20410;55.578;12.968;2023-07-08T06:25:52;20.90;99.90
34135;DHT22;20410;55.578;12.968;2023-07-08T06:28:18;21.00;99.90
34135;DHT22;20410;55.578;12.968;2023-07-08T06:30:45;21.00;99.90
34135;DHT22;20410;55.578;12.968;2023-07-08T06:33:11;21.00;99.90
34135;DHT22;20410;55.578;12.968;2023-07-08T06:35:37;21.00;99.90
34135;DHT22;20410;55.578;12.968;2023-07-08T06:38:03;21.10;99.90
34135;DHT22;20410;55.578;12.968;2023-07-08T06:40:29;21.10;99.90
34135;DHT22;20410;55.578;12.968;2023-07-08T06:42:55;21.20;99.90
34135;DHT22;20410;55.578;12.968;2023-07-08T06:45:21;21.30;99.90
34135;DHT22;20410;55.578;12.968;2023-07-08T06:47:46;21.40;99.90
34135;DHT22;20410;55.578;12.968;2023-07-08T06:50:12;21.40;99.90
34135;DHT22;20410;55.578;12.968;2023-07-08T06:52:38;21.40;99.90
34135;DHT22;20410;55.578;12.968;2023-07-08T06:55:06;21.50;99.90
34135;DHT22;20410;55.578;12.968;2023-07-08T06:57:33;21.50;99.90
34135;DHT22;20410;55.578;12.968;2023-07-08T06:59:58;21.70;99.90
34135;DHT22;20410;55.578;12.968;2023-07-08T07:02:25;21.80;99.90
34135;DHT22;20410;55.578;12.968;2023-07-08T07:04:51;21.80;99.90
34135;DHT22;20410;55.578;12.968;2023-07-08T07:07:16;21.90;99.90
34135;DHT22;20410;55.578;12.968;2023-07-08T07:09:42;22.00;99.90
34135;DHT22;20410;55.578;12.968;2023-07-08T07:12:08;22.00;99.90
34135;DHT22;20410;55.578;12.968;2023-07-08T07:14:33;22.00;99.90
34135;DHT22;20410;55.578;12.968;2023-07-08T07:16:59;22.00;99.90
34135;DHT22;20410;55.578;12.968;2023-07-08T07:19:25;21.90;99.90
34135;DHT22;20410;55.578;12.968;2023-07-08T07:21:51;21.90;99.90
34135;DHT22;20410;55.578;12.968;2023-07-08T07:24:17;21.90;99.90
34135;DHT22;20410;55.578;12.968;2023-07-08T07:26:43;21.90;99.90
34135;DHT22;20410;55.578;12.968;2023-07-08T07:29:09;22.00;99.90
34135;DHT22;20410;55.578;12.968;2023-07-08T07:31:34;22.10;99.90
34135;DHT22;20410;55.578;12.968;2023-07-08T07:34:01;22.20;99.90
34135;DHT22;20410;55.578;12.968;2023-07-08T07:36:27;22.20;99.90
34135;DHT22;20410;55.578;12.968;2023-07-08T07:38:54;22.30;99.90
34135;DHT22;20410;55.578;12.968;2023-07-08T07:41:19;22.20;99.90
34135;DHT22;20410;55.578;12.968;2023-07-08T07:43:45;22.10;99.70
34135;DHT22;20410;55.578;12.968;2023-07-08T07:46:11;22.20;99.90
34135;DHT22;20410;55.578;12.968;2023-07-08T07:48:37;22.40;99.90
34135;DHT22;20410;55.578;12.968;2023-07-08T07:51:03;22.70;79.10
34135;DHT22;20410;55.578;12.968;2023-07-08T07:53:29;22.70;23.70
34135;DHT22;20410;55.578;12.968;2023-07-08T07:55:59;22.80;21.70
34135;DHT22;20410;55.578;12.968;2023-07-08T07:58:25;22.70;80.70
34135;DHT22;20410;55.578;12.968;2023-07-08T08:00:51;22.70;85.60
34135;DHT22;20410;55.578;12.968;2023-07-08T08:03:16;22.80;76.50
34135;DHT22;20410;55.578;12.968;2023-07-08T08:05:42;22.70;14.70
34135;DHT22;20410;55.578;12.968;2023-07-08T08:08:08;22.70;28.50
34135;DHT22;20410;55.578;12.968;2023-07-08T08:10:34;22.50;72.40
34135;DHT22;20410;55.578;12.968;2023-07-08T08:13:00;22.40;80.40
34135;DHT22;20410;55.578;12.968;2023-07-08T08:15:26;22.60;71.30
34135;DHT22;20410;55.578;12.968;2023-07-08T08:17:51;22.70;88.20
34135;DHT22;20410;55.578;12.968;2023-07-08T08:20:19;22.80;90.50
34135;DHT22;20410;55.578;12.968;2023-07-08T08:22:46;23.00;74.90
34135;DHT22;20410;55.578;12.968;2023-07-08T08:25:12;22.90;23.60
34135;DHT22;20410;55.578;12.968;2023-07-08T08:27:38;22.80;18.40
34135;DHT22;20410;55.578;12.968;2023-07-08T08:30:05;22.80;24.50
34135;DHT22;20410;55.578;12.968;2023-07-08T08:32:31;22.90;69.10
34135;DHT22;20410;55.578;12.968;2023-07-08T08:34:56;23.00;55.00
34135;DHT22;20410;55.578;12.968;2023-07-08T08:37:22;23.30;4.00
34135;DHT22;20410;55.578;12.968;2023-07-08T08:39:48;23.20;1.00
34135;DHT22;20410;55.578;12.968;2023-07-08T08:42:29;23.10;1.00
34135;DHT22;20410;55.578;12.968;2023-07-08T08:44:57;23.10;1.00
34135;DHT22;20410;55.578;12.968;2023-07-08T08:53:19;22.80;6.90
34135;DHT22;20410;55.578;12.968;2023-07-08T08:55:57;23.00;1.00
34135;DHT22;20410;55.578;12.968;2023-07-08T08:58:33;23.40;1.00
34135;DHT22;20410;55.578;12.968;2023-07-08T09:01:08;23.60;1.00
34135;DHT22;20410;55.578;12.968;2023-07-08T09:06:22;23.70;1.00
34135;DHT22;20410;55.578;12.968;2023-07-08T09:08:50;23.70;1.00
34135;DHT22;20410;55.578;12.968;2023-07-08T09:11:27;23.50;1.00
34135;DHT22;20410;55.578;12.968;2023-07-08T09:13:56;23.20;1.00
34135;DHT22;20410;55.578;12.968;2023-07-08T09:19:22;23.30;1.00
34135;DHT22;20410;55.578;12.968;2023-07-08T09:24:44;23.40;1.00
34135;DHT22;20410;55.578;12.968;2023-07-08T09:27:10;23.50;1.00
34135;DHT22;20410;55.578;12.968;2023-07-08T09:29:36;23.50;1.00
34135;DHT22;20410;55.578;12.968;2023-07-08T09:32:23;23.70;1.00
34135;DHT22;20410;55.578;12.968;2023-07-08T09:34:54;24.00;1.00
34135;DHT22;20410;55.578;12.968;2023-07-08T09:37:32;23.90;1.00
34135;DHT22;20410;55.578;12.968;2023-07-08T09:40:00;23.90;1.00
34135;DHT22;20410;55.578;12.968;2023-07-08T09:42:34;24.10;1.00
34135;DHT22;20410;55.578;12.968;2023-07-08T09:45:10;24.40;1.00
34135;DHT22;20410;55.578;12.968;2023-07-08T09:47:37;24.50;1.00
34135;DHT22;20410;55.578;12.968;2023-07-08T09:52:43;24.60;1.00
34135;DHT22;20410;55.578;12.968;2023-07-08T09:55:11;24.80;1.00
34135;DHT22;20410;55.578;12.968;2023-07-08T09:57:37;25.00;1.00
34135;DHT22;20410;55.578;12.968;2023-07-08T10:00:08;25.40;5.70
34135;DHT22;20410;55.578;12.968;2023-07-08T10:05:33;25.80;1.00
34135;DHT22;20410;55.578;12.968;2023-07-08T10:08:01;25.50;1.00
34135;DHT22;20410;55.578;12.968;2023-07-08T10:10:34;25.10;1.00
34135;DHT22;20410;55.578;12.968;2023-07-08T10:13:22;25.10;1.00
34135;DHT22;20410;55.578;12.968;2023-07-08T10:15:59;25.20;1.00
34135;DHT22;20410;55.578;12.968;2023-07-08T10:18:30;25.00;1.00
34135;DHT22;20410;55.578;12.968;2023-07-08T10:26:25;25.00;1.00
34135;DHT22;20410;55.578;12.968;2023-07-08T10:36:52;24.90;1.00
34135;DHT22;20410;55.578;12.968;2023-07-08T10:44:43;24.20;1.00
34135;DHT22;20410;55.578;12.968;2023-07-08T10:47:20;24.00;1.00
34135;DHT22;20410;55.578;12.968;2023-07-08T11:06:48;24.10;1.00
34135;DHT22;20410;55.578;12.968;2023-07-08T11:09:24;24.20;99.90
34135;DHT22;20410;55.578;12.968;2023-07-08T11:11:58;24.40;1.00
34135;DHT22;20410;55.578;12.968;2023-07-08T11:14:33;24.30;99.90
34135;DHT22;20410;55.578;12.968;2023-07-08T11:17:14;24.10;90.40
34135;DHT22;20410;55.578;12.968;2023-07-08T11:19:50;24.00;1.00
34135;DHT22;20410;55.578;12.968;2023-07-08T11:22:19;24.20;1.00
34135;DHT22;20410;55.578;12.968;2023-07-08T11:24:49;24.20;99.90
34135;DHT22;20410;55.578;12.968;2023-07-08T11:27:27;24.30;99.90
34135;DHT22;20410;55.578;12.968;2023-07-08T11:29:55;24.30;99.90
34135;DHT22;20410;55.578;12.968;2023-07-08T11:32:25;24.40;99.90
34135;DHT22;20410;55.578;12.968;2023-07-08T11:34:52;24.60;99.90
34135;DHT22;20410;55.578;12.968;2023-07-08T11:37:19;24.60;99.90
34135;DHT22;20410;55.578;12.968;2023-07-08T11:40:37;24.70;99.90
34135;DHT22;20410;55.578;12.968;2023-07-08T11:42:43;24.80;99.90
34135;DHT22;20410;55.578;12.968;2023-07-08T11:47:45;24.60;99.90
34135;DHT22;20410;55.578;12.968;2023-07-08T11:50:24;24.70;99.90
34135;DHT22;20410;55.578;12.968;2023-07-08T11:53:02;24.80;1.00
34135;DHT22;20410;55.578;12.968;2023-07-08T11:55:43;25.10;99.90
34135;DHT22;20410;55.578;12.968;2023-07-08T11:58:21;25.20;1.00
34135;DHT22;20410;55.578;12.968;2023-07-08T12:03:54;25.20;99.90
34135;DHT22;20410;55.578;12.968;2023-07-08T12:08:54;25.30;99.90
34135;DHT22;20410;55.578;12.968;2023-07-08T12:11:28;25.40;99.90
34135;DHT22;20410;55.578;12.968;2023-07-08T12:13:58;25.40;99.90
34135;DHT22;20410;55.578;12.968;2023-07-08T12:16:25;25.60;99.90
34135;DHT22;20410;55.578;12.968;2023-07-08T12:18:52;25.90;99.90
34135;DHT22;20410;55.578;12.968;2023-07-08T12:21:18;25.90;99.90
34135;DHT22;20410;55.578;12.968;2023-07-08T12:23:47;25.80;99.90
34135;DHT22;20410;55.578;12.968;2023-07-08T12:26:14;25.80;99.90
34135;DHT22;20410;55.578;12.968;2023-07-08T12:28:40;25.90;99.90
34135;DHT22;20410;55.578;12.968;2023-07-08T12:31:15;25.70;99.90
34135;DHT22;20410;55.578;12.968;2023-07-08T12:33:41;25.60;99.90
34135;DHT22;20410;55.578;12.968;2023-07-08T12:36:10;25.50;99.90
34135;DHT22;20410;55.578;12.968;2023-07-08T12:38:39;25.50;99.90
34135;DHT22;20410;55.578;12.968;2023-07-08T12:41:11;25.40;99.90
34135;DHT22;20410;55.578;12.968;2023-07-08T12:43:37;25.40;99.90
34135;DHT22;20410;55.578;12.968;2023-07-08T12:46:03;25.40;1.00
34135;DHT22;20410;55.578;12.968;2023-07-08T12:48:35;25.30;99.90
34135;DHT22;20410;55.578;12.968;2023-07-08T12:51:03;25.30;99.90
34135;DHT22;20410;55.578;12.968;2023-07-08T12:53:29;25.30;99.90
34135;DHT22;20410;55.578;12.968;2023-07-08T12:55:57;25.50;99.90
34135;DHT22;20410;55.578;12.968;2023-07-08T12:58:28;25.40;99.90
34135;DHT22;20410;55.578;12.968;2023-07-08T13:00:59;25.30;1.00
34135;DHT22;20410;55.578;12.968;2023-07-08T13:03:29;25.40;99.90
34135;DHT22;20410;55.578;12.968;2023-07-08T13:05:57;25.40;99.90
34135;DHT22;20410;55.578;12.968;2023-07-08T13:08:26;25.60;99.90
34135;DHT22;20410;55.578;12.968;2023-07-08T13:10:57;25.70;99.90
34135;DHT22;20410;55.578;12.968;2023-07-08T13:13:40;25.60;1.00
34135;DHT22;20410;55.578;12.968;2023-07-08T13:16:09;25.50;1.00
34135;DHT22;20410;55.578;12.968;2023-07-08T13:18:40;25.30;1.00
34135;DHT22;20410;55.578;12.968;2023-07-08T13:21:13;25.30;99.90
34135;DHT22;20410;55.578;12.968;2023-07-08T13:23:39;25.40;99.90
34135;DHT22;20410;55.578;12.968;2023-07-08T13:26:18;25.40;99.90
34135;DHT22;20410;55.578;12.968;2023-07-08T13:28:44;25.40;99.90
34135;DHT22;20410;55.578;12.968;2023-07-08T13:31:20;25.30;1.00
34135;DHT22;20410;55.578;12.968;2023-07-08T13:33:53;25.30;1.00
34135;DHT22;20410;55.578;12.968;2023-07-08T13:36:22;25.40;1.00
34135;DHT22;20410;55.578;12.968;2023-07-08T13:38:49;25.50;99.90
34135;DHT22;20410;55.578;12.968;2023-07-08T13:41:21;25.60;1.00
34135;DHT22;20410;55.578;12.968;2023-07-08T13:43:48;25.60;99.90
34135;DHT22;20410;55.578;12.968;2023-07-08T13:48:58;25.80;99.90
34135;DHT22;20410;55.578;12.968;2023-07-08T13:51:30;25.70;99.90
34135;DHT22;20410;55.578;12.968;2023-07-08T13:54:00;25.70;99.90
34135;DHT22;20410;55.578;12.968;2023-07-08T13:56:30;25.70;99.90
34135;DHT22;20410;55.578;12.968;2023-07-08T14:01:29;26.00;99.90
34135;DHT22;20410;55.578;12.968;2023-07-08T14:03:56;26.10;99.90
34135;DHT22;20410;55.578;12.968;2023-07-08T14:06:29;26.20;99.90
34135;DHT22;20410;55.578;12.968;2023-07-08T14:08:57;26.30;99.90
34135;DHT22;20410;55.578;12.968;2023-07-08T14:11:23;26.40;99.90
34135;DHT22;20410;55.578;12.968;2023-07-08T14:13:49;26.50;99.90
34135;DHT22;20410;55.578;12.968;2023-07-08T14:16:27;26.60;99.90
34135;DHT22;20410;55.578;12.968;2023-07-08T14:18:55;26.50;99.90
34135;DHT22;20410;55.578;12.968;2023-07-08T14:21:21;26.60;99.90
34135;DHT22;20410;55.578;12.968;2023-07-08T14:23:47;26.70;99.90
34135;DHT22;20410;55.578;12.968;2023-07-08T14:26:13;26.70;99.90
34135;DHT22;20410;55.578;12.968;2023-07-08T14:28:39;26.70;99.90
34135;DHT22;20410;55.578;12.968;2023-07-08T14:31:10;26.70;99.90
34135;DHT22;20410;55.578;12.968;2023-07-08T14:33:37;26.60;99.90
34135;DHT22;20410;55.578;12.968;2023-07-08T14:36:04;26.40;99.90
34135;DHT22;20410;55.578;12.968;2023-07-08T14:38:32;26.30;59.90
34135;DHT22;20410;55.578;12.968;2023-07-08T14:40:57;26.10;1.10
34135;DHT22;20410;55.578;12.968;2023-07-08T14:43:31;26.10;99.90
34135;DHT22;20410;55.578;12.968;2023-07-08T14:46:03;26.20;99.90
34135;DHT22;20410;55.578;12.968;2023-07-08T14:48:30;26.20;99.90
34135;DHT22;20410;55.578;12.968;2023-07-08T14:50:56;26.20;99.90
34135;DHT22;20410;55.578;12.968;2023-07-08T14:53:22;26.10;1.00
34135;DHT22;20410;55.578;12.968;2023-07-08T14:55:49;25.90;99.90
34135;DHT22;20410;55.578;12.968;2023-07-08T14:58:37;25.90;99.90
34135;DHT22;20410;55.578;12.968;2023-07-08T15:01:08;25.80;99.90
34135;DHT22;20410;55.578;12.968;2023-07-08T15:03:37;25.70;96.00
34135;DHT22;20410;55.578;12.968;2023-07-08T15:06:02;25.60;20.90
34135;DHT22;20410;55.578;12.968;2023-07-08T15:08:28;25.70;99.90
34135;DHT22;20410;55.578;12.968;2023-07-08T15:10:54;26.00;99.90
34135;DHT22;20410;55.578;12.968;2023-07-08T15:13:21;25.90;99.90
34135;DHT22;20410;55.578;12.968;2023-07-08T15:15:49;25.90;99.90
34135;DHT22;20410;55.578;12.968;2023-07-08T15:18:17;25.80;90.30
34135;DHT22;20410;55.578;12.968;2023-07-08T15:20:43;25.80;70.40
34135;DHT22;20410;55.578;12.968;2023-07-08T15:23:10;25.80;99.90
34135;DHT22;20410;55.578;12.968;2023-07-08T15:25:37;25.70;99.90
34135;DHT22;20410;55.578;12.968;2023-07-08T15:28:04;25.70;99.90
34135;DHT22;20410;55.578;12.968;2023-07-08T15:30:30;25.70;99.90
34135;DHT22;20410;55.578;12.968;2023-07-08T15:32:56;25.70;99.90
34135;DHT22;20410;55.578;12.968;2023-07-08T15:35:27;25.60;99.90
34135;DHT22;20410;55.578;12.968;2023-07-08T15:37:57;25.60;99.90
34135;DHT22;20410;55.578;12.968;2023-07-08T15:40:25;25.50;99.90
34135;DHT22;20410;55.578;12.968;2023-07-08T15:42:55;25.40;1.00
34135;DHT22;20410;55.578;12.968;2023-07-08T15:45:30;25.60;1.00
34135;DHT22;20410;55.578;12.968;2023-07-08T15:47:56;26.00;1.00
34135;DHT22;20410;55.578;12.968;2023-07-08T15:50:23;26.20;99.90
34135;DHT22;20410;55.578;12.968;2023-07-08T15:52:50;26.40;99.90
34135;DHT22;20410;55.578;12.968;2023-07-08T15:55:40;26.20;99.90
34135;DHT22;20410;55.578;12.968;2023-07-08T15:58:12;25.90;99.90
34135;DHT22;20410;55.578;12.968;2023-07-08T16:00:40;25.60;1.00
34135;DHT22;20410;55.578;12.968;2023-07-08T16:03:22;25.80;1.00
34135;DHT22;20410;55.578;12.968;2023-07-08T16:05:49;25.90;99.90
34135;DHT22;20410;55.578;12.968;2023-07-08T16:08:15;25.90;99.90
34135;DHT22;20410;55.578;12.968;2023-07-08T16:10:40;25.70;99.90
34135;DHT22;20410;55.578;12.968;2023-07-08T16:13:09;25.60;99.90
34135;DHT22;20410;55.578;12.968;2023-07-08T16:15:36;25.50;99.90
34135;DHT22;20410;55.578;12.968;2023-07-08T16:18:03;25.50;99.90
34135;DHT22;20410;55.578;12.968;2023-07-08T16:20:30;25.50;99.90
34135;DHT22;20410;55.578;12.968;2023-07-08T16:22:58;25.40;99.90
34135;DHT22;20410;55.578;12.968;2023-07-08T16:25:31;25.40;99.90
34135;DHT22;20410;55.578;12.968;2023-07-08T16:27:58;25.30;99.90
34135;DHT22;20410;55.578;12.968;2023-07-08T16:30:26;25.30;1.00
34135;DHT22;20410;55.578;12.968;2023-07-08T16:32:52;25.40;99.90
34135;DHT22;20410;55.578;12.968;2023-07-08T16:35:19;25.40;99.90
34135;DHT22;20410;55.578;12.968;2023-07-08T16:37:50;25.20;99.90
34135;DHT22;20410;55.578;12.968;2023-07-08T16:40:19;25.10;99.90
34135;DHT22;20410;55.578;12.968;2023-07-08T16:42:47;25.00;99.90
34135;DHT22;20410;55.578;12.968;2023-07-08T16:45:15;25.10;99.90
34135;DHT22;20410;55.578;12.968;2023-07-08T16:47:41;25.10;99.90